createdAt,value
2018-06-16T00:00:35.342Z,96.27
2018-06-16T00:01:35.248Z,96.84
2018-06-16T00:02:35.190Z,98.66
2018-06-16T00:03:35.076Z,98.57
2018-06-16T00:04:34.980Z,99.14
2018-06-16T00:05:34.983Z,99.99
2018-06-16T00:06:34.797Z,99.99
2018-06-16T00:07:34.738Z,99.99
2018-06-16T00:08:34.618Z,99.99
2018-06-16T00:09:34.528Z,99.99
2018-06-16T00:10:34.436Z,99.99
2018-06-16T00:11:34.344Z,99.99
2018-06-16T00:12:34.378Z,99.99
2018-06-16T00:13:34.164Z,99.99
2018-06-16T00:14:34.076Z,99.99
2018-06-16T00:15:33.985Z,99.99
2018-06-16T00:16:33.896Z,99.99
2018-06-16T00:17:33.832Z,99.99
2018-06-16T00:18:33.848Z,99.99
2018-06-16T00:19:33.622Z,99.99
2018-06-16T00:20:33.532Z,99.99
2018-06-16T00:21:33.442Z,99.99
2018-06-16T00:22:33.384Z,99.99
2018-06-16T00:23:33.260Z,99.99
2018-06-16T00:24:33.168Z,99.99
2018-06-16T00:25:33.076Z,99.99
2018-06-16T00:26:32.990Z,99.99
2018-06-16T00:27:32.934Z,99.99
2018-06-16T00:28:32.810Z,99.99
2018-06-16T00:29:32.718Z,99.99
2018-06-16T00:30:32.629Z,99.99
2018-06-16T00:31:32.539Z,99.99
2018-06-16T00:32:32.476Z,99.99
2018-06-16T00:33:32.361Z,99.99
2018-06-16T00:34:32.266Z,99.99
2018-06-16T00:35:32.175Z,99.99
2018-06-16T00:36:32.084Z,99.99
2018-06-16T00:37:32.026Z,99.99
2018-06-16T00:38:31.910Z,99.99
2018-06-16T00:39:31.814Z,99.99
2018-06-16T00:40:31.728Z,99.99
2018-06-16T00:41:31.636Z,99.99
2018-06-16T00:42:31.545Z,99.99
2018-06-16T00:43:31.491Z,99.99
2018-06-16T00:44:31.362Z,99.99
2018-06-16T00:45:31.270Z,99.99
2018-06-16T00:46:31.183Z,99.99
2018-06-16T00:47:31.094Z,99.99
2018-06-16T00:48:31.032Z,99.99
2018-06-16T00:49:30.911Z,99.99
2018-06-16T00:50:30.823Z,99.99
2018-06-16T00:51:30.781Z,99.99
2018-06-16T00:52:30.647Z,99.99
2018-06-16T00:53:30.585Z,99.99
2018-06-16T00:54:30.462Z,99.99
2018-06-16T00:55:30.375Z,99.99
2018-06-16T00:56:30.284Z,99.99
2018-06-16T00:57:30.196Z,99.99
2018-06-16T00:58:30.135Z,99.99
2018-06-16T00:59:30.028Z,99.99
2018-06-16T01:00:29.927Z,99.99
2018-06-16T01:01:29.837Z,99.99
2018-06-16T01:02:29.746Z,99.99
2018-06-16T01:03:29.690Z,99.99
2018-06-16T01:04:30.265Z,99.99
2018-06-16T01:05:29.478Z,99.99
2018-06-16T01:06:29.384Z,99.99
2018-06-16T01:07:29.292Z,99.99
2018-06-16T01:08:29.238Z,99.99
2018-06-16T01:09:29.117Z,99.99
2018-06-16T01:10:29.026Z,99.99
2018-06-16T01:11:28.939Z,99.99
2018-06-16T01:12:28.845Z,99.99
2018-06-16T01:13:28.790Z,99.99
2018-06-16T01:14:28.669Z,99.99
2018-06-16T01:15:28.573Z,99.99
2018-06-16T01:16:28.488Z,99.99
2018-06-16T01:17:28.396Z,99.99
2018-06-16T01:18:28.339Z,99.99
2018-06-16T01:19:28.216Z,99.99
2018-06-16T01:20:28.129Z,99.99
2018-06-16T01:21:28.035Z,99.99
2018-06-16T01:22:27.946Z,99.99
2018-06-16T01:23:27.888Z,99.99
2018-06-16T01:24:27.766Z,99.99
2018-06-16T01:25:27.678Z,99.99
2018-06-16T01:26:27.587Z,99.99
2018-06-16T01:27:27.497Z,99.99
2018-06-16T01:28:27.439Z,99.99
2018-06-16T01:29:27.319Z,99.99
2018-06-16T01:30:27.225Z,99.99
2018-06-16T01:31:27.154Z,99.99
2018-06-16T01:32:27.048Z,99.99
2018-06-16T01:33:26.992Z,99.99
2018-06-16T01:34:26.868Z,99.99
2018-06-16T01:35:26.779Z,99.99
2018-06-16T01:36:26.689Z,99.99
2018-06-16T01:37:26.597Z,99.99
2018-06-16T01:38:26.540Z,99.99
2018-06-16T01:39:26.418Z,99.99
2018-06-16T01:40:26.327Z,99.99
2018-06-16T01:41:26.236Z,99.99
2018-06-16T01:42:26.150Z,99.99
2018-06-16T01:43:26.098Z,99.99
2018-06-16T01:44:25.972Z,99.99
2018-06-16T01:45:25.880Z,99.99
2018-06-16T01:46:25.792Z,99.99
2018-06-16T01:47:25.700Z,99.99
2018-06-16T01:48:25.643Z,99.99
2018-06-16T01:49:25.520Z,99.99
2018-06-16T01:50:25.432Z,99.99
2018-06-16T01:51:25.340Z,99.99
2018-06-16T01:52:25.253Z,99.99
2018-06-16T01:53:25.196Z,99.99
2018-06-16T01:54:25.071Z,99.99
2018-06-16T01:55:24.982Z,99.99
2018-06-16T01:56:24.980Z,99.99
2018-06-16T01:57:24.801Z,99.99
2018-06-16T01:58:24.741Z,99.99
2018-06-16T01:59:24.621Z,99.99
2018-06-16T02:00:24.533Z,99.99
2018-06-16T02:01:24.444Z,99.99
2018-06-16T02:02:24.351Z,99.99
2018-06-16T02:03:24.406Z,99.99
2018-06-16T02:04:24.175Z,99.99
2018-06-16T02:05:24.083Z,99.99
2018-06-16T02:06:23.994Z,99.99
2018-06-16T02:07:23.907Z,99.99
2018-06-16T02:08:23.818Z,99.99
2018-06-16T02:09:23.752Z,99.99
2018-06-16T02:10:23.724Z,99.99
2018-06-16T02:11:23.543Z,99.99
2018-06-16T02:12:23.451Z,99.99
2018-06-16T02:13:23.368Z,99.99
2018-06-16T02:14:23.305Z,99.99
2018-06-16T02:15:23.184Z,99.99
2018-06-16T02:16:23.094Z,99.99
2018-06-16T02:17:23.096Z,99.99
2018-06-16T02:18:22.919Z,99.99
2018-06-16T02:19:22.857Z,99.99
2018-06-16T02:20:22.742Z,99.99
2018-06-16T02:21:22.642Z,99.99
2018-06-16T02:22:22.553Z,99.99
2018-06-16T02:23:22.467Z,99.99
2018-06-16T02:24:22.487Z,99.99
2018-06-16T02:25:22.287Z,99.99
2018-06-16T02:26:22.198Z,99.99
2018-06-16T02:27:22.107Z,99.99
2018-06-16T02:28:22.020Z,99.99
2018-06-16T02:29:21.958Z,99.99
2018-06-16T02:30:21.843Z,99.99
2018-06-16T02:31:21.839Z,99.99
2018-06-16T02:32:21.657Z,99.99
2018-06-16T02:33:21.568Z,99.99
2018-06-16T02:34:21.513Z,99.99
2018-06-16T02:35:21.390Z,99.99
2018-06-16T02:36:21.297Z,99.99
2018-06-16T02:37:21.205Z,99.99
2018-06-16T02:38:21.212Z,99.99
2018-06-16T02:39:21.061Z,99.99
2018-06-16T02:40:20.940Z,99.99
2018-06-16T02:41:20.851Z,99.99
2018-06-16T02:42:20.759Z,99.99
2018-06-16T02:43:20.667Z,99.99
2018-06-16T02:44:20.615Z,99.99
2018-06-16T02:45:20.593Z,99.99
2018-06-16T02:46:20.403Z,99.99
2018-06-16T02:47:20.310Z,99.99
2018-06-16T02:48:20.226Z,99.99
2018-06-16T02:49:20.163Z,99.99
2018-06-16T02:50:20.124Z,99.99
2018-06-16T02:51:19.952Z,99.99
2018-06-16T02:52:19.950Z,99.99
2018-06-16T02:53:19.773Z,99.99
2018-06-16T02:54:19.715Z,99.99
2018-06-16T02:55:19.609Z,99.99
2018-06-16T02:56:19.503Z,99.99
2018-06-16T02:57:19.413Z,99.99
2018-06-16T02:58:19.320Z,99.99
2018-06-16T02:59:19.357Z,99.99
2018-06-16T03:00:19.146Z,99.99
2018-06-16T03:01:19.057Z,99.99
2018-06-16T03:02:18.964Z,99.99
2018-06-16T03:03:18.929Z,99.99
2018-06-16T03:04:18.814Z,99.99
2018-06-16T03:05:18.691Z,99.99
2018-06-16T03:06:18.689Z,99.99
2018-06-16T03:07:18.513Z,99.99
2018-06-16T03:08:18.423Z,99.99
2018-06-16T03:09:18.363Z,99.99
2018-06-16T03:10:18.245Z,99.99
2018-06-16T03:11:18.155Z,99.99
2018-06-16T03:12:18.063Z,99.99
2018-06-16T03:13:18.070Z,99.99
2018-06-16T03:14:17.914Z,99.99
2018-06-16T03:15:17.792Z,99.99
2018-06-16T03:16:17.704Z,99.99
2018-06-16T03:17:17.616Z,99.99
2018-06-16T03:18:17.525Z,99.99
2018-06-16T03:19:17.466Z,99.99
2018-06-16T03:20:17.343Z,99.99
2018-06-16T03:21:17.252Z,99.99
2018-06-16T03:22:17.162Z,99.99
2018-06-16T03:23:17.077Z,99.99
2018-06-16T03:24:17.017Z,99.99
2018-06-16T03:25:16.894Z,99.99
2018-06-16T03:26:16.801Z,99.99
2018-06-16T03:27:16.712Z,99.99
2018-06-16T03:28:16.625Z,99.99
2018-06-16T03:29:16.572Z,99.99
2018-06-16T03:30:16.443Z,99.99
2018-06-16T03:31:16.357Z,99.99
2018-06-16T03:32:16.263Z,99.99
2018-06-16T03:33:16.172Z,99.99
2018-06-16T03:34:16.118Z,99.99
2018-06-16T03:35:15.995Z,99.99
2018-06-16T03:36:15.927Z,99.99
2018-06-16T03:37:15.825Z,99.99
2018-06-16T03:38:15.725Z,99.99
2018-06-16T03:39:15.633Z,99.99
2018-06-16T03:40:15.575Z,99.99
2018-06-16T03:41:15.454Z,99.99
2018-06-16T03:42:15.362Z,99.99
2018-06-16T03:43:15.274Z,99.99
2018-06-16T03:44:15.185Z,99.99
2018-06-16T03:45:15.130Z,99.99
2018-06-16T03:46:15.005Z,99.99
2018-06-16T03:47:14.933Z,99.99
2018-06-16T03:48:14.825Z,99.99
2018-06-16T03:49:14.735Z,99.99
2018-06-16T03:50:14.741Z,99.99
2018-06-16T03:51:14.557Z,99.99
2018-06-16T03:52:14.469Z,99.99
2018-06-16T03:53:14.376Z,99.99
2018-06-16T03:54:14.289Z,99.99
2018-06-16T03:55:14.237Z,99.99
2018-06-16T03:56:14.106Z,99.99
2018-06-16T03:57:14.018Z,99.99
2018-06-16T03:58:13.927Z,99.99
2018-06-16T03:59:13.844Z,99.99
2018-06-16T04:00:13.781Z,99.99
2018-06-16T04:01:13.659Z,99.99
2018-06-16T04:02:13.570Z,99.99
2018-06-16T04:03:13.478Z,99.99
2018-06-16T04:04:13.391Z,99.99
2018-06-16T04:05:13.331Z,99.99
2018-06-16T04:06:13.211Z,99.99
2018-06-16T04:07:13.121Z,99.99
2018-06-16T04:08:13.032Z,99.99
2018-06-16T04:09:12.941Z,99.99
2018-06-16T04:10:12.882Z,99.99
2018-06-16T04:11:12.762Z,99.99
2018-06-16T04:12:12.674Z,99.99
2018-06-16T04:13:12.586Z,99.99
2018-06-16T04:14:12.497Z,99.99
2018-06-16T04:15:12.434Z,99.99
2018-06-16T04:16:12.313Z,99.99
2018-06-16T04:17:12.225Z,99.99
2018-06-16T04:18:12.138Z,99.99
2018-06-16T04:19:12.050Z,99.99
2018-06-16T04:20:11.991Z,99.99
2018-06-16T04:21:11.868Z,99.99
2018-06-16T04:22:11.777Z,99.99
2018-06-16T04:23:11.692Z,99.99
2018-06-16T04:24:11.603Z,99.99
2018-06-16T04:25:11.540Z,99.99
2018-06-16T04:26:11.420Z,99.99
2018-06-16T04:27:11.332Z,99.99
2018-06-16T04:28:11.243Z,99.99
2018-06-16T04:29:11.152Z,99.99
2018-06-16T04:30:11.093Z,99.99
2018-06-16T04:31:10.972Z,99.99
2018-06-16T04:32:10.887Z,99.99
2018-06-16T04:33:10.797Z,99.99
2018-06-16T04:34:10.708Z,99.99
2018-06-16T04:35:10.646Z,99.99
2018-06-16T04:36:10.528Z,99.99
2018-06-16T04:37:10.440Z,99.99
2018-06-16T04:38:10.351Z,99.99
2018-06-16T04:39:10.261Z,99.99
2018-06-16T04:40:10.207Z,99.99
2018-06-16T04:41:10.085Z,99.99
2018-06-16T04:42:09.996Z,99.99
2018-06-16T04:43:09.914Z,99.99
2018-06-16T04:44:09.814Z,99.99
2018-06-16T04:45:09.760Z,99.99
2018-06-16T04:46:09.646Z,99.99
2018-06-16T04:47:09.551Z,99.99
2018-06-16T04:48:09.467Z,99.99
2018-06-16T04:49:09.375Z,99.99
2018-06-16T04:50:09.327Z,99.99
2018-06-16T04:51:09.195Z,99.99
2018-06-16T04:52:09.106Z,99.99
2018-06-16T04:53:09.015Z,99.99
2018-06-16T04:54:08.930Z,99.99
2018-06-16T04:55:08.872Z,99.99
2018-06-16T04:56:08.752Z,99.99
2018-06-16T04:57:08.665Z,99.99
2018-06-16T04:58:08.576Z,99.99
2018-06-16T04:59:08.486Z,99.99
2018-06-16T05:00:08.431Z,99.99
2018-06-16T05:01:08.306Z,99.99
2018-06-16T05:02:08.218Z,99.99
2018-06-16T05:03:08.129Z,99.99
2018-06-16T05:04:08.043Z,99.99
2018-06-16T05:05:07.986Z,99.99
2018-06-16T05:06:07.867Z,99.99
2018-06-16T05:07:07.823Z,99.99
2018-06-16T05:08:07.690Z,99.99
2018-06-16T05:09:07.599Z,99.99
2018-06-16T05:10:07.512Z,99.99
2018-06-16T05:11:07.454Z,99.99
2018-06-16T05:12:07.346Z,99.99
2018-06-16T05:13:07.247Z,99.99
2018-06-16T05:14:07.157Z,99.99
2018-06-16T05:15:07.071Z,99.99
2018-06-16T05:16:07.016Z,99.99
2018-06-16T05:17:06.896Z,99.99
2018-06-16T05:18:06.805Z,99.99
2018-06-16T05:19:06.998Z,99.99
2018-06-16T05:20:06.632Z,99.99
2018-06-16T05:21:06.574Z,99.99
2018-06-16T05:22:06.457Z,99.99
2018-06-16T05:23:06.362Z,99.99
2018-06-16T05:24:06.274Z,99.99
2018-06-16T05:25:06.185Z,99.99
2018-06-16T05:26:06.217Z,99.99
2018-06-16T05:27:06.011Z,99.99
2018-06-16T05:28:05.922Z,99.99
2018-06-16T05:29:05.830Z,99.99
2018-06-16T05:30:05.747Z,99.99
2018-06-16T05:31:05.689Z,99.99
2018-06-16T05:32:05.566Z,99.99
2018-06-16T05:33:05.568Z,99.99
2018-06-16T05:34:05.388Z,99.99
2018-06-16T05:35:05.305Z,99.99
2018-06-16T05:36:05.243Z,99.99
2018-06-16T05:37:05.124Z,99.99
2018-06-16T05:38:05.037Z,99.99
2018-06-16T05:39:04.949Z,99.99
2018-06-16T05:40:04.951Z,99.99
2018-06-16T05:41:04.803Z,99.99
2018-06-16T05:42:04.685Z,99.99
2018-06-16T05:43:04.597Z,99.99
2018-06-16T05:44:04.517Z,99.99
2018-06-16T05:45:04.422Z,99.99
2018-06-16T05:46:04.366Z,99.99
2018-06-16T05:47:04.337Z,99.99
2018-06-16T05:48:04.156Z,99.99
2018-06-16T05:49:04.068Z,99.99
2018-06-16T05:50:03.981Z,99.99
2018-06-16T05:51:03.923Z,99.99
2018-06-16T05:52:03.801Z,99.99
2018-06-16T05:53:03.716Z,99.99
2018-06-16T05:54:03.763Z,99.99
2018-06-16T05:55:03.537Z,99.99
2018-06-16T05:56:03.502Z,99.99
2018-06-16T05:57:03.363Z,99.99
2018-06-16T05:58:03.275Z,99.99
2018-06-16T05:59:03.186Z,99.99
2018-06-16T06:00:03.102Z,99.99
2018-06-16T06:01:03.134Z,99.99
2018-06-16T06:02:02.930Z,99.99
2018-06-16T06:03:02.840Z,99.99
2018-06-16T06:04:02.750Z,99.99
2018-06-16T06:05:02.661Z,99.99
2018-06-16T06:06:02.618Z,99.99
2018-06-16T06:07:02.488Z,99.99
2018-06-16T06:08:02.489Z,99.99
2018-06-16T06:09:02.309Z,99.99
2018-06-16T06:10:02.225Z,99.99
2018-06-16T06:11:02.168Z,99.99
2018-06-16T06:12:02.052Z,99.99
2018-06-16T06:13:01.957Z,99.99
2018-06-16T06:14:01.872Z,99.99
2018-06-16T06:15:01.879Z,99.99
2018-06-16T06:16:01.729Z,99.99
2018-06-16T06:17:01.608Z,99.99
2018-06-16T06:18:01.522Z,99.99
2018-06-16T06:19:01.434Z,99.99
2018-06-16T06:20:01.346Z,99.99
2018-06-16T06:21:01.292Z,99.99
2018-06-16T06:22:01.173Z,99.99
2018-06-16T06:23:01.088Z,99.99
2018-06-16T06:24:00.997Z,99.99
2018-06-16T06:25:00.909Z,99.99
2018-06-16T06:26:00.858Z,99.99
2018-06-16T06:27:00.739Z,99.99
2018-06-16T06:28:00.653Z,99.99
2018-06-16T06:29:00.561Z,99.99
2018-06-16T06:30:00.477Z,99.99
2018-06-16T06:31:00.419Z,99.99
2018-06-16T06:32:00.348Z,99.99
2018-06-16T06:33:00.215Z,99.99
2018-06-16T06:34:00.131Z,99.99
2018-06-16T06:35:00.051Z,99.99
2018-06-16T06:35:59.986Z,99.99
2018-06-16T06:36:59.868Z,99.99
2018-06-16T06:37:59.782Z,99.99
2018-06-16T06:38:59.697Z,99.99
2018-06-16T06:39:59.611Z,99.99
2018-06-16T06:40:59.520Z,99.99
2018-06-16T06:41:59.468Z,99.99
2018-06-16T06:42:59.347Z,99.99
2018-06-16T06:43:59.264Z,99.99
2018-06-16T06:44:59.171Z,99.99
2018-06-16T06:45:59.089Z,99.99
2018-06-16T06:46:59.030Z,99.99
2018-06-16T06:47:58.913Z,99.99
2018-06-16T06:48:58.823Z,99.99
2018-06-16T06:49:58.744Z,99.99
2018-06-16T06:50:58.655Z,99.99
2018-06-16T06:51:58.601Z,99.99
2018-06-16T06:52:58.481Z,99.99
2018-06-16T06:53:58.395Z,99.06
2018-06-16T06:54:58.309Z,98.05
2018-06-16T06:55:58.227Z,97.96
2018-06-16T06:56:58.167Z,96.70
2018-06-16T06:57:58.061Z,97.47
2018-06-16T06:58:57.965Z,96.70
2018-06-16T06:59:57.878Z,96.70
2018-06-16T07:00:57.824Z,94.11
2018-06-16T07:01:57.749Z,96.03
2018-06-16T07:02:57.620Z,98.14
2018-06-16T07:03:57.542Z,96.99
2018-06-16T07:04:57.445Z,95.79
2018-06-16T07:05:57.359Z,95.02
2018-06-16T07:06:57.306Z,98.19
2018-06-16T07:07:57.190Z,96.17
2018-06-16T07:08:57.201Z,94.97
2018-06-16T07:09:57.015Z,94.87
2018-06-16T07:10:57.011Z,94.40
2018-06-16T07:11:56.879Z,92.47
2018-06-16T07:12:56.760Z,90.20
2018-06-16T07:13:56.678Z,90.11
2018-06-16T07:14:56.589Z,91.60
2018-06-16T07:15:56.596Z,91.41
2018-06-16T07:16:56.450Z,91.60
2018-06-16T07:17:56.335Z,92.66
2018-06-16T07:18:56.248Z,91.51
2018-06-16T07:19:56.168Z,91.60
2018-06-16T07:20:56.080Z,92.66
2018-06-16T07:21:56.024Z,93.19
2018-06-16T07:22:56.002Z,91.89
2018-06-16T07:23:55.827Z,91.07
2018-06-16T07:24:55.741Z,89.15
2018-06-16T07:25:55.654Z,89.24
2018-06-16T07:26:55.601Z,90.30
2018-06-16T07:27:55.485Z,90.64
2018-06-16T07:28:55.399Z,89.15
2018-06-16T07:29:55.409Z,90.59
2018-06-16T07:30:55.232Z,89.82
2018-06-16T07:31:55.178Z,87.46
2018-06-16T07:32:55.072Z,87.36
2018-06-16T07:33:54.975Z,84.86
2018-06-16T07:34:54.891Z,85.67
2018-06-16T07:35:54.808Z,87.21
2018-06-16T07:36:54.846Z,86.58
2018-06-16T07:37:54.639Z,83.07
2018-06-16T07:38:54.563Z,82.29
2018-06-16T07:39:54.476Z,83.22
2018-06-16T07:40:54.389Z,84.53
2018-06-16T07:41:54.334Z,83.99
2018-06-16T07:42:54.219Z,85.19
2018-06-16T07:43:54.241Z,83.98
2018-06-16T07:44:54.049Z,84.83
2018-06-16T07:45:53.967Z,82.36
2018-06-16T07:46:53.921Z,78.89
2018-06-16T07:47:53.800Z,81.11
2018-06-16T07:48:53.770Z,78.27
2018-06-16T07:49:53.632Z,77.21
2018-06-16T07:50:53.644Z,75.95
2018-06-16T07:51:53.500Z,78.41
2018-06-16T07:52:53.381Z,80.33
2018-06-16T07:53:53.301Z,79.89
2018-06-16T07:54:53.226Z,79.99
2018-06-16T07:55:53.134Z,79.12
2018-06-16T07:56:53.085Z,77.09
2018-06-16T07:57:53.062Z,80.33
2018-06-16T07:58:52.891Z,75.85
2018-06-16T07:59:52.809Z,77.01
2018-06-16T08:00:52.723Z,80.39
2018-06-16T08:01:52.674Z,79.56
2018-06-16T08:02:52.574Z,80.33
2018-06-16T08:03:52.481Z,77.34
2018-06-16T08:04:52.398Z,78.79
2018-06-16T08:05:52.316Z,78.75
2018-06-16T08:06:52.268Z,79.62
2018-06-16T08:07:52.156Z,79.14
2018-06-16T08:08:52.072Z,77.40
2018-06-16T08:09:51.993Z,78.13
2018-06-16T08:10:51.911Z,80.49
2018-06-16T08:11:51.957Z,79.85
2018-06-16T08:12:51.776Z,76.28
2018-06-16T08:13:51.665Z,74.44
2018-06-16T08:14:51.584Z,75.74
2018-06-16T08:15:51.502Z,76.32
2018-06-16T08:16:51.424Z,75.39
2018-06-16T08:17:51.448Z,78.67
2018-06-16T08:18:51.262Z,74.42
2018-06-16T08:19:51.179Z,73.36
2018-06-16T08:20:51.101Z,75.04
2018-06-16T08:21:51.018Z,72.64
2018-06-16T08:22:50.965Z,73.61
2018-06-16T08:23:50.856Z,72.78
2018-06-16T08:24:50.775Z,73.32
2018-06-16T08:25:50.703Z,76.80
2018-06-16T08:26:50.614Z,75.26
2018-06-16T08:27:50.570Z,74.64
2018-06-16T08:28:50.454Z,77.22
2018-06-16T08:29:50.382Z,75.78
2018-06-16T08:30:50.296Z,73.30
2018-06-16T08:31:50.211Z,73.91
2018-06-16T08:32:50.163Z,72.75
2018-06-16T08:33:50.052Z,68.49
2018-06-16T08:34:50.029Z,70.88
2018-06-16T08:35:49.891Z,71.14
2018-06-16T08:36:49.807Z,74.90
2018-06-16T08:37:49.763Z,74.65
2018-06-16T08:38:49.650Z,72.04
2018-06-16T08:39:49.570Z,70.75
2018-06-16T08:40:49.492Z,71.62
2018-06-16T08:41:49.409Z,73.01
2018-06-16T08:42:49.358Z,71.50
2018-06-16T08:43:49.254Z,71.88
2018-06-16T08:44:49.174Z,74.17
2018-06-16T08:45:49.089Z,73.68
2018-06-16T08:46:49.011Z,71.50
2018-06-16T08:47:48.963Z,68.88
2018-06-16T08:48:48.848Z,70.30
2018-06-16T08:49:48.776Z,68.56
2018-06-16T08:50:48.692Z,67.79
2018-06-16T08:51:48.610Z,67.78
2018-06-16T08:52:48.565Z,64.47
2018-06-16T08:53:48.452Z,64.05
2018-06-16T08:54:48.375Z,63.34
2018-06-16T08:55:48.299Z,67.30
2018-06-16T08:56:48.213Z,67.75
2018-06-16T08:57:48.166Z,71.20
2018-06-16T08:58:48.056Z,72.03
2018-06-16T08:59:47.975Z,70.58
2018-06-16T09:00:47.893Z,68.46
2018-06-16T09:01:47.815Z,65.40
2018-06-16T09:02:47.767Z,67.59
2018-06-16T09:03:47.653Z,68.73
2018-06-16T09:04:47.578Z,63.53
2018-06-16T09:05:47.494Z,65.89
2018-06-16T09:06:47.414Z,66.47
2018-06-16T09:07:47.363Z,66.82
2018-06-16T09:08:47.252Z,66.69
2018-06-16T09:09:47.175Z,68.33
2018-06-16T09:10:47.097Z,67.24
2018-06-16T09:11:47.015Z,66.14
2018-06-16T09:12:46.961Z,69.62
2018-06-16T09:13:46.856Z,69.85
2018-06-16T09:14:46.774Z,67.56
2018-06-16T09:15:46.693Z,64.59
2018-06-16T09:16:46.616Z,67.82
2018-06-16T09:17:46.568Z,66.11
2018-06-16T09:18:46.457Z,64.40
2018-06-16T09:19:46.382Z,65.08
2018-06-16T09:20:46.317Z,61.81
2018-06-16T09:21:46.219Z,61.29
2018-06-16T09:22:46.177Z,63.46
2018-06-16T09:23:46.063Z,60.38
2018-06-16T09:24:45.981Z,63.36
2018-06-16T09:25:45.903Z,63.75
2018-06-16T09:26:45.827Z,60.85
2018-06-16T09:27:45.866Z,63.10
2018-06-16T09:28:45.683Z,61.88
2018-06-16T09:29:45.589Z,63.65
2018-06-16T09:30:45.509Z,60.97
2018-06-16T09:31:45.492Z,60.94
2018-06-16T09:32:45.388Z,64.01
2018-06-16T09:33:45.275Z,64.75
2018-06-16T09:34:45.292Z,63.78
2018-06-16T09:35:45.118Z,63.98
2018-06-16T09:36:45.041Z,65.40
2018-06-16T09:37:44.998Z,65.72
2018-06-16T09:38:44.888Z,66.27
2018-06-16T09:39:44.807Z,68.85
2018-06-16T09:40:44.737Z,69.46
2018-06-16T09:41:44.748Z,70.82
2018-06-16T09:42:44.571Z,68.62
2018-06-16T09:43:44.527Z,68.59
2018-06-16T09:44:44.412Z,67.65
2018-06-16T09:45:44.336Z,71.12
2018-06-16T09:46:44.258Z,71.80
2018-06-16T09:47:44.176Z,71.80
2018-06-16T09:48:44.214Z,70.45
2018-06-16T09:49:44.017Z,67.40
2018-06-16T09:50:43.936Z,68.72
2018-06-16T09:51:43.857Z,69.30
2018-06-16T09:52:43.780Z,66.78
2018-06-16T09:53:43.728Z,67.30
2018-06-16T09:54:43.619Z,67.69
2018-06-16T09:55:43.632Z,66.63
2018-06-16T09:56:43.456Z,66.63
2018-06-16T09:57:43.386Z,66.14
2018-06-16T09:58:43.327Z,67.59
2018-06-16T09:59:43.215Z,66.50
2018-06-16T10:00:43.145Z,66.01
2018-06-16T10:01:43.064Z,66.69
2018-06-16T10:02:43.073Z,67.40
2018-06-16T10:03:42.927Z,68.43
2018-06-16T10:04:42.816Z,67.94
2018-06-16T10:05:42.738Z,70.20
2018-06-16T10:06:42.653Z,68.04
2018-06-16T10:07:42.575Z,67.85
2018-06-16T10:08:42.524Z,67.66
2018-06-16T10:09:42.500Z,71.23
2018-06-16T10:10:42.332Z,71.30
2018-06-16T10:11:42.251Z,68.24
2018-06-16T10:12:42.169Z,67.04
2018-06-16T10:13:42.123Z,69.65
2018-06-16T10:14:42.013Z,68.52
2018-06-16T10:15:41.945Z,67.56
2018-06-16T10:16:41.940Z,65.75
2018-06-16T10:17:41.767Z,66.91
2018-06-16T10:18:41.719Z,68.49
2018-06-16T10:19:41.604Z,65.30
2018-06-16T10:20:41.522Z,68.21
2018-06-16T10:21:41.448Z,68.59
2018-06-16T10:22:41.364Z,65.30
2018-06-16T10:23:41.404Z,63.59
2018-06-16T10:24:41.204Z,64.17
2018-06-16T10:25:41.121Z,64.92
2018-06-16T10:26:41.038Z,64.82
2018-06-16T10:27:40.973Z,66.66
2018-06-16T10:28:40.911Z,63.01
2018-06-16T10:29:40.797Z,60.72
2018-06-16T10:30:40.810Z,61.69
2018-06-16T10:31:40.643Z,65.05
2018-06-16T10:32:40.559Z,61.36
2018-06-16T10:33:40.514Z,59.46
2018-06-16T10:34:40.395Z,60.30
2018-06-16T10:35:40.318Z,60.25
2018-06-16T10:36:40.233Z,61.16
2018-06-16T10:37:40.247Z,64.33
2018-06-16T10:38:40.106Z,62.69
2018-06-16T10:39:40.004Z,62.17
2018-06-16T10:40:39.916Z,64.07
2018-06-16T10:41:39.838Z,63.24
2018-06-16T10:42:39.758Z,59.59
2018-06-16T10:43:39.710Z,62.95
2018-06-16T10:44:39.690Z,62.50
2018-06-16T10:45:39.518Z,62.50
2018-06-16T10:46:39.440Z,62.82
2018-06-16T10:47:39.360Z,63.66
2018-06-16T10:48:39.313Z,64.11
2018-06-16T10:49:39.202Z,66.69
2018-06-16T10:50:39.141Z,63.95
2018-06-16T10:51:39.042Z,64.92
2018-06-16T10:52:38.963Z,64.92
2018-06-16T10:53:38.915Z,66.95
2018-06-16T10:54:38.802Z,63.63
2018-06-16T10:55:38.724Z,65.82
2018-06-16T10:56:38.642Z,64.30
2018-06-16T10:57:38.563Z,64.79
2018-06-16T10:58:38.515Z,63.11
2018-06-16T10:59:38.402Z,68.66
2018-06-16T11:00:38.325Z,69.56
2018-06-16T11:01:38.247Z,71.01
2018-06-16T11:02:38.162Z,66.20
2018-06-16T11:03:38.118Z,68.98
2018-06-16T11:04:38.005Z,66.75
2018-06-16T11:05:37.924Z,69.08
2018-06-16T11:06:37.844Z,70.86
2018-06-16T11:07:37.769Z,66.05
2018-06-16T11:08:37.716Z,67.11
2018-06-16T11:09:37.609Z,66.69
2018-06-16T11:10:37.527Z,66.24
2018-06-16T11:11:37.453Z,62.36
2018-06-16T11:12:37.367Z,61.81
2018-06-16T11:13:37.288Z,63.88
2018-06-16T11:14:37.240Z,59.22
2018-06-16T11:15:37.131Z,58.18
2018-06-16T11:16:37.049Z,58.12
2018-06-16T11:17:36.975Z,61.68
2018-06-16T11:18:36.896Z,63.62
2018-06-16T11:19:36.844Z,65.82
2018-06-16T11:20:36.734Z,66.05
2018-06-16T11:21:36.660Z,66.08
2018-06-16T11:22:36.577Z,64.23
2018-06-16T11:23:36.502Z,63.30
2018-06-16T11:24:36.452Z,61.85
2018-06-16T11:25:36.343Z,59.81
2018-06-16T11:26:36.265Z,60.10
2018-06-16T11:27:36.185Z,62.78
2018-06-16T11:28:36.109Z,63.36
2018-06-16T11:29:36.059Z,62.59
2018-06-16T11:30:35.950Z,59.28
2018-06-16T11:31:35.871Z,59.28
2018-06-16T11:32:35.793Z,61.09
2018-06-16T11:33:35.715Z,64.88
2018-06-16T11:34:35.672Z,57.11
2018-06-16T11:35:35.564Z,60.94
2018-06-16T11:36:35.482Z,61.55
2018-06-16T11:37:35.407Z,61.72
2018-06-16T11:38:35.329Z,63.14
2018-06-16T11:39:35.286Z,63.53
2018-06-16T11:40:35.168Z,65.75
2018-06-16T11:41:35.092Z,62.82
2018-06-16T11:42:35.017Z,62.40
2018-06-16T11:43:34.941Z,64.11
2018-06-16T11:44:34.889Z,66.82
2018-06-16T11:45:34.783Z,63.63
2018-06-16T11:46:34.702Z,66.08
2018-06-16T11:47:34.622Z,69.95
2018-06-16T11:48:34.544Z,60.72
2018-06-16T11:49:34.498Z,58.95
2018-06-16T11:50:34.385Z,57.81
2018-06-16T11:51:34.308Z,58.23
2018-06-16T11:52:34.228Z,58.04
2018-06-16T11:53:34.149Z,55.90
2018-06-16T11:54:34.100Z,58.04
2018-06-16T11:55:33.993Z,60.58
2018-06-16T11:56:33.912Z,57.19
2018-06-16T11:57:33.865Z,59.23
2018-06-16T11:58:33.753Z,58.98
2018-06-16T11:59:33.707Z,60.36
2018-06-16T12:00:33.596Z,59.91
2018-06-16T12:01:33.520Z,57.94
2018-06-16T12:02:33.440Z,57.39
2018-06-16T12:03:33.361Z,59.42
2018-06-16T12:04:33.313Z,59.45
2018-06-16T12:05:33.202Z,59.26
2018-06-16T12:06:33.122Z,56.57
2018-06-16T12:07:33.044Z,56.89
2018-06-16T12:08:32.965Z,59.41
2018-06-16T12:09:32.921Z,54.97
2018-06-16T12:10:32.809Z,56.43
2018-06-16T12:11:32.731Z,54.13
2018-06-16T12:12:32.651Z,55.55
2018-06-16T12:13:32.574Z,55.79
2018-06-16T12:14:32.526Z,57.06
2018-06-16T12:15:32.422Z,58.39
2018-06-16T12:16:32.342Z,60.52
2018-06-16T12:17:32.261Z,61.32
2018-06-16T12:18:32.187Z,57.44
2018-06-16T12:19:32.139Z,53.17
2018-06-16T12:20:32.030Z,55.24
2018-06-16T12:21:31.948Z,55.53
2018-06-16T12:22:31.963Z,54.85
2018-06-16T12:23:31.794Z,56.37
2018-06-16T12:24:31.749Z,55.79
2018-06-16T12:25:31.636Z,55.08
2018-06-16T12:26:31.562Z,55.79
2018-06-16T12:27:31.484Z,58.15
2018-06-16T12:28:31.409Z,60.64
2018-06-16T12:29:31.449Z,54.10
2018-06-16T12:30:31.251Z,55.85
2018-06-16T12:31:31.172Z,53.97
2018-06-16T12:32:31.096Z,54.31
2018-06-16T12:33:31.018Z,53.34
2018-06-16T12:34:30.971Z,58.19
2018-06-16T12:35:30.865Z,53.08
2018-06-16T12:36:30.874Z,57.73
2018-06-16T12:37:30.709Z,59.67
2018-06-16T12:38:30.629Z,55.69
2018-06-16T12:39:30.584Z,54.86
2018-06-16T12:40:30.474Z,53.61
2018-06-16T12:41:30.400Z,53.19
2018-06-16T12:42:30.321Z,56.15
2018-06-16T12:43:30.340Z,54.41
2018-06-16T12:44:30.208Z,55.08
2018-06-16T12:45:30.090Z,57.65
2018-06-16T12:46:30.016Z,58.36
2018-06-16T12:47:29.937Z,56.94
2018-06-16T12:48:29.856Z,58.81
2018-06-16T12:49:29.805Z,59.10
2018-06-16T12:50:29.820Z,58.81
2018-06-16T12:51:29.623Z,59.61